Detall de PIREP

Printer-friendly versionPDF version

[2013/03/24 08:14:00]
Flight IATA:CT1004
Pilot Number:012
Company ICAO:CAT
Aircraft Type:MD11/E
PAX:254
Aircraft Registration:PAX
Departing Airport: LEBL
Destination Airport: GCXO
Alternate Airport:GCLP
Online: VATSIM
Route:LOTOS UM985 PIMOS UN869 RUSIK
Flight Level:F330
No Slew and time accel
No pause
Crash detect
Detect pilot in Cockpit between each 30 and 45 minutes
08:14 Zero fuel Weight: 377798 Lbs, Fuel Weight: 66918 Lbs
08:14 VATSIM:LEBL 240800Z 31006KT 6000 FEW020 12/10 Q1000 NOSIG
08:14 VATSIM:GCXO 240800Z 31014KT 9999 FEW015 SCT028 13/10 Q1018 NOSIG
08:14 VOICE CATALONIAN / EASTER CHARTER
08:15 Parking Brakes off
08:21 Take-off
08:21 Take off Weight: 443420 Lbs
08:21 Wind: 293º @ 005 Knots Heading: 246º
08:21 POS N41º 17´ 09´´ E002º 05´ 05´´
08:21 Gear Up: 194 Knots
08:21 Flaps:3 at 194 Knots
08:22 Flaps:2 at 201 Knots
08:22 Flaps:3 at 204 Knots
08:22 Flaps:2 at 205 Knots
08:22 Flaps:1 at 207 Knots
08:22 Flaps:0 at 223 Knots
08:32 TOC
08:32 Fuel Weight: 57789 Lb
08:36 Wind:230º@018 Knots Heading: 227º Ground Speed: 458 Knots Altitude 32611 ft
08:51 Wind:289º@026 Knots Heading: 234º Ground Speed: 463 Knots Altitude 32687 ft
09:06 Wind:312º@064 Knots Heading: 233º Ground Speed: 472 Knots Altitude 32824 ft
09:21 Wind:316º@081 Knots Heading: 221º Ground Speed: 495 Knots Altitude 32893 ft
09:36 Wind:315º@087 Knots Heading: 226º Ground Speed: 487 Knots Altitude 32998 ft
09:51 Wind:315º@078 Knots Heading: 219º Ground Speed: 495 Knots Altitude 33051 ft
10:06 Wind:302º@064 Knots Heading: 217º Ground Speed: 480 Knots Altitude 33067 ft
10:21 Wind:290º@063 Knots Heading: 250º Ground Speed: 435 Knots Altitude 33034 ft
10:36 Wind:294º@048 Knots Heading: 248º Ground Speed: 450 Knots Altitude 33126 ft
10:49 TOD
10:49 Fuel Weight: 23024 Lb
10:51 Wind:289º@040 Knots Heading: 270º Ground Speed: 419 Knots Altitude 30839 ft
11:04 Flaps:1 at 256 Knots
11:05 Flaps:2 at 232 Knots
11:06 Wind:344º@016 Knots Heading: 301º Ground Speed: 239 Knots Altitude 6610 ft
11:06 Flaps:3 at 230 Knots
11:06 Flaps:4 at 190 Knots
11:06 Flaps:3 at 189 Knots
11:06 Flaps:4 at 187 Knots
11:06 Flaps:5 at 182 Knots
11:06 Flaps:6 at 181 Knots
11:06 Flaps:7 at 176 Knots
11:06 Gear Down: 173 Knots
11:13 TouchDown:Rate -349 ft/min Speed: 148 Knots
11:14 Land
11:14 Wind:316º@013 Knots
11:14 Heading: 019º
11:14 Flight Duration: 02:53
11:14 Landing Weight: 396273 Lbs
11:14 POS N28º 29´ 10´´ W016º 21´ 00´´
11:15 Parking brakes on
11:15 Block to Block Duration: 03:00
11:15 Final Fuel: 18364 Lbls
11:15 Spent Fuel: 48553 Lbls
11:15 Flight Length: 1260 NM
11:15 TOD Land Length: 120 NM

Exportar CSV

Powered by Drupal - Modified by Danger4k